createdAt,value
2019-03-01T00:00:25.988Z,91491.37
2019-03-01T00:03:14.422Z,91485.05
2019-03-01T00:06:20.174Z,91477.70
2019-03-01T00:09:38.055Z,91473.31
2019-03-01T00:12:34.282Z,91473.24
2019-03-01T00:15:35.193Z,91475.45
2019-03-01T00:18:40.470Z,91473.34
2019-03-01T00:21:56.421Z,91467.95
2019-03-01T00:25:18.314Z,91467.19
2019-03-01T00:28:28.353Z,91458.47
2019-03-01T00:31:44.188Z,91466.02
2019-03-01T00:34:38.469Z,91460.74
2019-03-01T00:37:38.857Z,91466.13
2019-03-01T00:40:51.491Z,91467.95
2019-03-01T00:43:52.843Z,91461.41
2019-03-01T00:46:46.708Z,91457.21
2019-03-01T00:49:34.612Z,91457.36
2019-03-01T00:52:22.459Z,91459.81
2019-03-01T00:55:10.387Z,91462.41
2019-03-01T00:57:59.418Z,91452.97
2019-03-01T01:00:57.005Z,91454.37
2019-03-01T01:03:45.355Z,91444.72
2019-03-01T01:06:35.307Z,91444.61
2019-03-01T01:09:23.883Z,91446.58
2019-03-01T01:12:12.015Z,91442.41
2019-03-01T01:15:05.732Z,91438.62
2019-03-01T01:17:54.166Z,91435.71
2019-03-01T01:20:48.380Z,91433.51
2019-03-01T01:23:36.913Z,91433.12
2019-03-01T01:26:24.851Z,91432.80
2019-03-01T01:29:14.427Z,91431.30
2019-03-01T01:32:02.815Z,91427.77
2019-03-01T01:34:50.891Z,91430.86
2019-03-01T01:37:39.338Z,91422.89
2019-03-01T01:40:27.496Z,91422.09
2019-03-01T01:43:15.821Z,91419.45
2019-03-01T01:46:03.522Z,91408.81
2019-03-01T01:48:52.012Z,91403.41
2019-03-01T01:51:40.398Z,91408.18
2019-03-01T01:54:28.621Z,91416.51
2019-03-01T01:57:16.292Z,91407.56
2019-03-01T02:00:05.371Z,91416.16
2019-03-01T02:02:53.724Z,91405.96
2019-03-01T02:05:41.423Z,91414.98
2019-03-01T02:08:29.596Z,91414.36
2019-03-01T02:11:17.303Z,91417.34
2019-03-01T02:14:05.344Z,91411.92
2019-03-01T02:16:53.403Z,91416.10
2019-03-01T02:19:41.914Z,91405.72
2019-03-01T02:22:30.331Z,91412.61
2019-03-01T02:25:18.669Z,91409.68
2019-03-01T02:28:06.662Z,91414.73
2019-03-01T02:30:55.420Z,91404.13
2019-03-01T02:33:43.330Z,91401.47
2019-03-01T02:36:31.707Z,91391.15
2019-03-01T02:39:20.187Z,91395.13
2019-03-01T02:42:08.289Z,91391.08
2019-03-01T02:44:56.689Z,91396.84
2019-03-01T02:47:45.088Z,91391.62
2019-03-01T02:50:33.058Z,91385.56
2019-03-01T02:53:21.036Z,91380.94
2019-03-01T02:56:09.195Z,91381.55
2019-03-01T02:58:56.861Z,91386.20
2019-03-01T03:01:45.179Z,91388.66
2019-03-01T03:04:33.244Z,91388.00
2019-03-01T03:07:29.443Z,91383.70
2019-03-01T03:10:18.073Z,91386.55
2019-03-01T03:13:07.552Z,91383.00
2019-03-01T03:15:55.493Z,91383.47
2019-03-01T03:18:43.976Z,91386.16
2019-03-01T03:21:31.839Z,91387.32
2019-03-01T03:24:20.007Z,91385.90
2019-03-01T03:27:08.450Z,91403.32
2019-03-01T03:29:56.887Z,91395.08
2019-03-01T03:32:45.284Z,91390.89
2019-03-01T03:35:33.705Z,91392.39
2019-03-01T03:38:21.693Z,91398.17
2019-03-01T03:41:09.691Z,91397.94
2019-03-01T03:43:58.049Z,91400.47
2019-03-01T03:46:46.078Z,91393.13
2019-03-01T03:49:33.933Z,91401.71
2019-03-01T03:52:22.336Z,91397.78
2019-03-01T03:55:11.312Z,91402.27
2019-03-01T03:57:59.467Z,91408.90
2019-03-01T04:00:47.609Z,91403.46
2019-03-01T04:03:36.171Z,91390.45
2019-03-01T04:06:24.547Z,91381.14
2019-03-01T04:09:12.358Z,91386.98
2019-03-01T04:12:00.772Z,91387.05
2019-03-01T04:14:48.598Z,91386.82
2019-03-01T04:17:36.896Z,91377.69
2019-03-01T04:20:24.781Z,91387.38
2019-03-01T04:23:13.146Z,91392.51
2019-03-01T04:26:01.863Z,91388.05
2019-03-01T04:28:49.941Z,91384.64
2019-03-01T04:31:38.393Z,91386.22
2019-03-01T04:34:26.689Z,91381.78
2019-03-01T04:37:15.236Z,91381.19
2019-03-01T04:40:03.475Z,91382.47
2019-03-01T04:42:51.952Z,91382.13
2019-03-01T04:45:40.010Z,91390.58
2019-03-01T04:48:28.126Z,91386.42
2019-03-01T04:51:16.583Z,91397.38
2019-03-01T04:54:05.085Z,91394.03
2019-03-01T04:56:53.164Z,91400.20
2019-03-01T04:59:41.315Z,91407.92
2019-03-01T05:02:29.869Z,91403.08
2019-03-01T05:05:18.564Z,91403.22
2019-03-01T05:08:06.639Z,91397.75
2019-03-01T05:10:55.132Z,91417.78
2019-03-01T05:13:43.487Z,91412.81
2019-03-01T05:16:31.629Z,91408.31
2019-03-01T05:19:20.083Z,91413.20
2019-03-01T05:22:08.506Z,91408.17
2019-03-01T05:24:56.621Z,91411.84
2019-03-01T05:27:45.281Z,91416.95
2019-03-01T05:30:34.338Z,91420.09
2019-03-01T05:33:25.439Z,91420.20
2019-03-01T05:36:13.899Z,91423.52
2019-03-01T05:39:01.977Z,91427.39
2019-03-01T05:41:52.734Z,91423.47
2019-03-01T05:44:40.490Z,91422.58
2019-03-01T05:47:34.873Z,91424.34
2019-03-01T05:50:23.211Z,91429.22
2019-03-01T05:53:11.122Z,91426.58
2019-03-01T05:55:59.558Z,91428.16
2019-03-01T05:59:20.462Z,91435.98
2019-03-01T06:02:33.051Z,91450.73
2019-03-01T06:05:27.498Z,91450.53
2019-03-01T06:08:40.830Z,91447.98
2019-03-01T06:11:37.488Z,91440.80
2019-03-01T06:14:30.864Z,91436.70
2019-03-01T06:17:27.544Z,91439.73
2019-03-01T06:20:23.304Z,91435.95
2019-03-01T06:23:37.502Z,91441.78
2019-03-01T06:26:53.165Z,91446.64
2019-03-01T06:30:09.658Z,91447.53
2019-03-01T06:33:08.134Z,91444.25
2019-03-01T06:36:19.609Z,91436.02
2019-03-01T06:39:55.679Z,91452.33
2019-03-01T06:42:53.072Z,91442.67
2019-03-01T06:45:55.396Z,91448.50
2019-03-01T06:48:54.207Z,91454.00
2019-03-01T06:51:42.217Z,91454.09
2019-03-01T06:54:30.299Z,91461.67
2019-03-01T06:57:18.887Z,91459.99
2019-03-01T07:00:07.896Z,91461.01
2019-03-01T07:02:58.874Z,91450.59
2019-03-01T07:05:46.630Z,91459.75
2019-03-01T07:08:34.720Z,91458.33
2019-03-01T07:11:23.217Z,91467.95
2019-03-01T07:14:11.703Z,91457.30
2019-03-01T07:17:00.044Z,91455.31
2019-03-01T07:19:48.225Z,91458.19
2019-03-01T07:22:35.892Z,91458.25
2019-03-01T07:25:23.632Z,91470.57
2019-03-01T07:28:12.024Z,91461.45
2019-03-01T07:30:59.748Z,91448.60
2019-03-01T07:33:47.500Z,91455.70
2019-03-01T07:36:36.033Z,91441.55
2019-03-01T07:39:24.609Z,91436.86
2019-03-01T07:42:12.394Z,91444.14
2019-03-01T07:45:00.829Z,91438.02
2019-03-01T07:47:49.439Z,91432.39
2019-03-01T07:50:37.789Z,91439.71
2019-03-01T07:53:26.215Z,91440.67
2019-03-01T07:56:13.892Z,91425.84
2019-03-01T07:59:01.817Z,91426.35
2019-03-01T08:01:49.283Z,91422.15
2019-03-01T08:04:37.337Z,91424.31
2019-03-01T08:07:25.094Z,91414.33
2019-03-01T08:10:20.614Z,91424.05
2019-03-01T08:13:03.525Z,91415.80
2019-03-01T08:15:51.229Z,91419.14
2019-03-01T08:18:40.162Z,91415.66
2019-03-01T08:21:28.404Z,91430.55
2019-03-01T08:24:16.932Z,91426.67
2019-03-01T08:27:06.519Z,91421.61
2019-03-01T08:29:54.923Z,91411.63
2019-03-01T08:32:43.324Z,91412.84
2019-03-01T08:35:32.325Z,91429.78
2019-03-01T08:38:21.260Z,91413.55
2019-03-01T08:41:09.314Z,91422.01
2019-03-01T08:43:58.061Z,91411.04
2019-03-01T08:46:46.591Z,91428.58
2019-03-01T08:49:35.227Z,91438.58
2019-03-01T08:52:23.455Z,91420.27
2019-03-01T08:55:12.298Z,91427.77
2019-03-01T08:58:03.445Z,91418.23
2019-03-01T09:00:59.014Z,91428.86
2019-03-01T09:03:47.539Z,91414.81
2019-03-01T09:06:36.356Z,91429.97
2019-03-01T09:09:25.208Z,91419.06
2019-03-01T09:12:14.273Z,91419.98
2019-03-01T09:15:04.420Z,91422.48
2019-03-01T09:17:54.147Z,91420.75
2019-03-01T09:20:42.321Z,91422.20
2019-03-01T09:23:33.357Z,91412.44
2019-03-01T09:26:21.765Z,91421.06
2019-03-01T09:29:13.030Z,91417.28
2019-03-01T09:32:02.065Z,91425.45
2019-03-01T09:34:54.793Z,91424.21
2019-03-01T09:37:42.969Z,91414.16
2019-03-01T09:40:31.067Z,91408.76
2019-03-01T09:43:19.005Z,91412.11
2019-03-01T09:46:07.176Z,91425.48
2019-03-01T09:48:55.728Z,91428.98
2019-03-01T09:51:49.214Z,91418.62
2019-03-01T09:54:33.397Z,91417.22
2019-03-01T09:57:21.547Z,91423.61
2019-03-01T10:00:10.875Z,91410.95
2019-03-01T10:02:58.968Z,91414.77
2019-03-01T10:05:47.420Z,91412.44
2019-03-01T10:08:35.879Z,91416.08
2019-03-01T10:11:24.071Z,91416.52
2019-03-01T10:14:12.492Z,91407.03
2019-03-01T10:17:00.715Z,91417.20
2019-03-01T10:19:49.115Z,91417.66
2019-03-01T10:22:37.220Z,91413.09
2019-03-01T10:25:25.512Z,91394.44
2019-03-01T10:28:13.816Z,91398.34
2019-03-01T10:31:01.813Z,91407.73
2019-03-01T10:33:50.187Z,91402.77
2019-03-01T10:36:38.277Z,91399.70
2019-03-01T10:39:26.776Z,91398.19
2019-03-01T10:42:15.199Z,91402.01
2019-03-01T10:45:03.396Z,91397.25
2019-03-01T10:47:51.779Z,91387.58
2019-03-01T10:50:40.172Z,91387.98
2019-03-01T10:53:28.466Z,91383.65
2019-03-01T10:56:16.748Z,91389.05
2019-03-01T10:59:04.529Z,91381.64
2019-03-01T11:01:52.937Z,91386.00
2019-03-01T11:04:41.552Z,91375.98
2019-03-01T11:07:29.591Z,91365.32
2019-03-01T11:10:19.234Z,91359.86
2019-03-01T11:13:07.968Z,91362.88
2019-03-01T11:15:56.477Z,91360.81
2019-03-01T11:18:45.068Z,91361.96
2019-03-01T11:21:33.125Z,91361.95
2019-03-01T11:24:21.484Z,91358.59
2019-03-01T11:27:12.916Z,91363.95
2019-03-01T11:29:59.747Z,91355.83
2019-03-01T11:32:47.632Z,91345.42
2019-03-01T11:35:35.792Z,91350.28
2019-03-01T11:38:23.972Z,91351.48
2019-03-01T11:41:12.032Z,91347.38
2019-03-01T11:44:00.707Z,91337.20
2019-03-01T11:46:48.867Z,91339.72
2019-03-01T11:49:37.337Z,91345.30
2019-03-01T11:52:25.302Z,91339.69
2019-03-01T12:09:10.555Z,91329.89
2019-03-01T12:11:58.962Z,91331.97
2019-03-01T12:14:47.048Z,91329.53
2019-03-01T12:21:16.987Z,91330.86
2019-03-01T12:24:04.791Z,91327.30
2019-03-01T12:26:52.525Z,91327.39
2019-03-01T12:29:40.931Z,91323.48
2019-03-01T12:32:29.317Z,91324.70
2019-03-01T12:35:17.847Z,91319.31
2019-03-01T12:38:05.807Z,91308.33
2019-03-01T12:40:53.660Z,91313.20
2019-03-01T12:43:42.129Z,91304.30
2019-03-01T12:46:30.598Z,91307.19
2019-03-01T12:49:19.043Z,91299.08
2019-03-01T12:52:07.487Z,91300.09
2019-03-01T12:54:55.227Z,91300.50
2019-03-01T12:57:43.339Z,91295.83
2019-03-01T13:00:32.137Z,91290.48
2019-03-01T13:03:20.217Z,91294.52
2019-03-01T13:06:08.289Z,91296.55
2019-03-01T13:08:56.704Z,91292.13
2019-03-01T13:11:44.430Z,91291.22
2019-03-01T13:14:14.168Z,91297.28
2019-03-01T13:16:43.902Z,91305.02
2019-03-01T13:19:13.857Z,91301.41
2019-03-01T13:21:45.507Z,91303.54
2019-03-01T13:24:16.353Z,91299.83
2019-03-01T13:26:46.362Z,91292.86
2019-03-01T13:29:19.137Z,91294.04
2019-03-01T13:31:47.929Z,91291.01
2019-03-01T13:34:17.788Z,91293.38
2019-03-01T13:36:47.536Z,91285.77
2019-03-01T13:39:20.696Z,91282.27
2019-03-01T13:41:51.183Z,91292.70
2019-03-01T13:44:22.150Z,91277.65
2019-03-01T13:46:53.091Z,91270.55
2019-03-01T13:49:26.752Z,91276.56
2019-03-01T13:51:56.588Z,91274.17
2019-03-01T13:54:27.444Z,91280.55
2019-03-01T13:56:59.936Z,91273.80
2019-03-01T13:59:30.795Z,91263.63
2019-03-01T14:02:04.330Z,91266.58
2019-03-01T14:04:36.581Z,91255.62
2019-03-01T14:07:06.834Z,91253.89
2019-03-01T14:09:37.687Z,91252.94
2019-03-01T14:12:08.576Z,91259.53
2019-03-01T14:14:39.436Z,91256.34
2019-03-01T14:17:10.295Z,91254.59
2019-03-01T14:19:42.211Z,91248.91
2019-03-01T14:22:14.092Z,91248.59
2019-03-01T14:24:44.942Z,91243.53
2019-03-01T14:27:15.860Z,91248.91
2019-03-01T14:29:52.544Z,91240.47
2019-03-01T14:32:21.699Z,91236.28
2019-03-01T14:34:51.920Z,91242.77
2019-03-01T14:37:22.878Z,91237.41
2019-03-01T14:39:53.741Z,91232.35
2019-03-01T14:42:24.628Z,91234.20
2019-03-01T14:44:55.492Z,91233.78
2019-03-01T14:47:29.040Z,91233.19
2019-03-01T14:50:00.790Z,91228.66
2019-03-01T14:52:31.808Z,91223.76
2019-03-01T14:55:02.707Z,91225.67
2019-03-01T14:57:36.879Z,91228.28
2019-03-01T15:00:20.351Z,91227.69
2019-03-01T15:03:27.475Z,91240.77
2019-03-01T15:05:58.489Z,91231.09
2019-03-01T15:08:29.424Z,91249.52
2019-03-01T15:11:04.271Z,91243.73
2019-03-01T15:13:35.958Z,91239.39
2019-03-01T15:16:08.036Z,91245.81
2019-03-01T15:18:39.790Z,91247.42
2019-03-01T15:21:11.381Z,91245.31
2019-03-01T15:23:42.316Z,91240.66
2019-03-01T15:26:16.358Z,91235.20
2019-03-01T15:28:55.432Z,91234.59
2019-03-01T15:31:24.688Z,91230.27
2019-03-01T15:33:55.540Z,91235.92
2019-03-01T15:36:26.584Z,91235.98
2019-03-01T15:38:57.576Z,91244.27
2019-03-01T15:41:28.436Z,91235.22
2019-03-01T15:43:59.293Z,91236.70
2019-03-01T15:46:30.272Z,91237.64
2019-03-01T15:49:01.151Z,91237.17
2019-03-01T15:51:34.688Z,91241.34
2019-03-01T15:54:04.834Z,91248.26
2019-03-01T15:56:35.691Z,91247.38
2019-03-01T15:59:09.650Z,91249.80
2019-03-01T16:01:39.204Z,91249.16
2019-03-01T16:04:10.162Z,91246.07
2019-03-01T16:06:41.018Z,91245.77
2019-03-01T16:09:18.151Z,91245.33
2019-03-01T16:11:49.027Z,91248.73
2019-03-01T16:14:24.305Z,91249.04
2019-03-01T16:16:54.802Z,91240.84
2019-03-01T16:19:25.689Z,91239.44
2019-03-01T16:21:56.555Z,91243.13
2019-03-01T16:24:27.952Z,91248.28
2019-03-01T16:26:59.006Z,91253.81
2019-03-01T16:29:29.987Z,91247.50
2019-03-01T16:32:00.974Z,91251.95
2019-03-01T16:34:31.964Z,91258.34
2019-03-01T16:37:03.156Z,91255.78
2019-03-01T16:39:35.255Z,91262.75
2019-03-01T16:42:14.543Z,91258.84
2019-03-01T16:44:45.403Z,91258.60
2019-03-01T16:47:16.539Z,91262.79
2019-03-01T16:49:48.822Z,91262.79
2019-03-01T16:52:23.180Z,91263.31
2019-03-01T16:54:54.814Z,91265.41
2019-03-01T16:57:26.108Z,91261.72
2019-03-01T16:59:57.420Z,91265.34
2019-03-01T17:02:28.350Z,91271.42
2019-03-01T17:04:59.742Z,91270.81
2019-03-01T17:07:31.824Z,91272.04
2019-03-01T17:10:03.102Z,91279.76
2019-03-01T17:12:34.383Z,91276.64
2019-03-01T17:15:05.939Z,91282.31
2019-03-01T17:17:37.782Z,91283.22
2019-03-01T17:20:10.054Z,91288.27
2019-03-01T17:22:40.906Z,91294.28
2019-03-01T17:25:12.286Z,91293.52
2019-03-01T17:27:44.123Z,91290.14
2019-03-01T17:30:17.908Z,91291.67
2019-03-01T17:32:49.050Z,91294.03
2019-03-01T17:35:20.261Z,91290.03
2019-03-01T17:37:51.202Z,91289.63
2019-03-01T17:40:22.328Z,91287.52
2019-03-01T17:42:56.419Z,91294.70
2019-03-01T17:45:27.647Z,91293.62
2019-03-01T17:48:01.717Z,91291.95
2019-03-01T17:50:32.879Z,91289.91
2019-03-01T17:53:06.206Z,91286.80
2019-03-01T17:55:38.445Z,91283.19
2019-03-01T17:58:09.717Z,91299.02
2019-03-01T18:00:42.978Z,91298.49
2019-03-01T18:03:13.926Z,91302.03
2019-03-01T18:05:46.512Z,91309.36
2019-03-01T18:08:17.375Z,91316.97
2019-03-01T18:10:49.830Z,91311.69
2019-03-01T18:13:20.912Z,91316.41
2019-03-01T18:15:51.778Z,91315.58
2019-03-01T18:18:22.678Z,91312.61
2019-03-01T18:20:53.562Z,91313.17
2019-03-01T18:23:24.420Z,91311.45
2019-03-01T18:25:55.378Z,91307.59
2019-03-01T18:28:28.328Z,91307.66
2019-03-01T18:30:58.781Z,91304.05
2019-03-01T18:33:29.680Z,91314.49
2019-03-01T18:36:00.841Z,91315.27
2019-03-01T18:38:32.457Z,91315.30
2019-03-01T18:41:03.719Z,91316.76
2019-03-01T18:43:35.742Z,91314.16
2019-03-01T18:46:06.687Z,91319.11
2019-03-01T18:48:40.562Z,91319.33
2019-03-01T18:51:10.127Z,91319.77
2019-03-01T18:53:41.050Z,91323.22
2019-03-01T18:56:12.002Z,91325.55
2019-03-01T18:58:45.730Z,91327.19
2019-03-01T19:01:15.628Z,91329.63
2019-03-01T19:03:46.541Z,91324.53
2019-03-01T19:06:17.430Z,91329.86
2019-03-01T19:08:48.331Z,91328.30
2019-03-01T19:11:19.213Z,91335.05
2019-03-01T19:13:50.101Z,91334.77
2019-03-01T19:16:21.059Z,91332.29
2019-03-01T19:18:53.093Z,91337.45
2019-03-01T19:21:25.716Z,91329.13
2019-03-01T19:24:04.738Z,91330.15
2019-03-01T19:26:36.526Z,91329.78
2019-03-01T19:29:08.221Z,91334.87
2019-03-01T19:31:39.096Z,91331.34
2019-03-01T19:34:12.982Z,91331.48
2019-03-01T19:36:42.657Z,91338.16
2019-03-01T19:39:21.535Z,91331.41
2019-03-01T19:41:54.511Z,91335.29
2019-03-01T19:44:28.922Z,91336.63
2019-03-01T19:46:58.570Z,91339.06
2019-03-01T19:49:29.585Z,91338.66
2019-03-01T19:52:00.457Z,91340.23
2019-03-01T19:54:32.404Z,91335.94
2019-03-01T19:57:04.274Z,91335.52
2019-03-01T19:59:35.216Z,91341.56
2019-03-01T20:02:06.191Z,91337.32
2019-03-01T20:04:37.053Z,91342.70
2019-03-01T20:07:10.655Z,91347.60
2019-03-01T20:09:41.870Z,91341.80
2019-03-01T20:12:13.222Z,91340.84
2019-03-01T20:14:44.359Z,91343.50
2019-03-01T20:17:15.560Z,91330.64
2019-03-01T20:19:46.729Z,91329.63
2019-03-01T20:22:18.609Z,91328.18
2019-03-01T20:24:51.660Z,91327.78
2019-03-01T20:27:22.532Z,91331.33
2019-03-01T20:29:55.459Z,91333.77
2019-03-01T20:32:26.343Z,91331.12
2019-03-01T20:34:57.437Z,91329.63
2019-03-01T20:37:28.661Z,91329.00
2019-03-01T20:39:59.613Z,91335.84
2019-03-01T20:42:30.639Z,91337.70
2019-03-01T20:45:02.838Z,91325.48
2019-03-01T20:47:33.792Z,91323.97
2019-03-01T20:50:04.818Z,91327.49
2019-03-01T20:52:38.084Z,91330.44
2019-03-01T20:55:09.056Z,91332.24
2019-03-01T20:57:40.728Z,91322.95
2019-03-01T21:00:30.484Z,91318.91
2019-03-01T21:03:20.184Z,91319.98
2019-03-01T21:06:09.178Z,91319.44
2019-03-01T21:09:00.749Z,91316.26
2019-03-01T21:11:49.374Z,91321.04
2019-03-01T21:14:38.143Z,91315.73
2019-03-01T21:17:29.331Z,91318.83
2019-03-01T21:20:19.556Z,91316.88
2019-03-01T21:23:11.742Z,91320.86
2019-03-01T21:26:00.633Z,91323.42
2019-03-01T21:28:50.206Z,91323.33
2019-03-01T21:31:39.487Z,91320.06
2019-03-01T21:34:29.134Z,91318.97
2019-03-01T21:37:18.415Z,91316.61
2019-03-01T21:40:07.912Z,91315.62
2019-03-01T21:42:59.993Z,91309.69
2019-03-01T21:45:48.934Z,91308.31
2019-03-01T21:48:38.258Z,91304.91
2019-03-01T21:51:27.878Z,91305.09
2019-03-01T21:54:17.545Z,91302.36
2019-03-01T21:57:07.025Z,91303.92
2019-03-01T21:59:56.829Z,91296.02
2019-03-01T22:02:48.851Z,91290.74
2019-03-01T22:05:36.593Z,91290.99
2019-03-01T22:08:26.140Z,91290.25
2019-03-01T22:11:15.432Z,91280.05
2019-03-01T22:14:07.630Z,91278.84
2019-03-01T22:16:55.405Z,91274.96
2019-03-01T22:19:47.031Z,91278.94
2019-03-01T22:22:37.508Z,91270.55
2019-03-01T22:25:27.424Z,91276.56
2019-03-01T22:28:16.279Z,91279.48
2019-03-01T22:31:05.520Z,91280.13
2019-03-01T22:33:55.862Z,91286.52
2019-03-01T22:36:45.682Z,91286.18
2019-03-01T22:39:34.955Z,91283.39
2019-03-01T22:42:24.439Z,91282.20
2019-03-01T22:45:14.652Z,91279.23
2019-03-01T22:48:08.441Z,91285.15
2019-03-01T22:50:56.227Z,91282.00
2019-03-01T22:53:45.750Z,91292.48
2019-03-01T22:56:35.084Z,91287.30
2019-03-01T22:59:24.745Z,91292.80
2019-03-01T23:02:16.512Z,91293.88
2019-03-01T23:05:06.217Z,91298.05
2019-03-01T23:07:56.952Z,91301.78
2019-03-01T23:10:46.330Z,91311.88
2019-03-01T23:13:35.696Z,91303.31
2019-03-01T23:16:25.031Z,91307.17
2019-03-01T23:19:16.086Z,91311.09
2019-03-01T23:22:07.541Z,91305.03
2019-03-01T23:24:55.058Z,91311.30
2019-03-01T23:27:44.592Z,91306.69
2019-03-01T23:30:33.959Z,91300.48
2019-03-01T23:33:23.287Z,91299.80
2019-03-01T23:36:12.605Z,91301.41
2019-03-01T23:39:02.197Z,91303.02
2019-03-01T23:41:51.442Z,91305.72
2019-03-01T23:44:41.514Z,91305.36
2019-03-01T23:47:34.650Z,91314.78
2019-03-01T23:50:23.565Z,91315.36
2019-03-01T23:53:12.792Z,91314.97
2019-03-01T23:56:02.127Z,91317.83
2019-03-01T23:58:52.774Z,91319.19
